Terminal Aerodrome Forecast
Issued by NWS

Home | Current Version | Previous Version | Graphics & Text | Print | Product List | Glossary On
Versions: 1 2 3 4 5 6 7 8 9 10 11 12 13 14 15 16 17 18
000
FTUS43 KBIS 161100
TAFDIK
TAF
KDIK 161120Z 1612/1712 35012KT P6SM VCSH BKN050 OVC070
     FM161500 36014G18KT P6SM BKN090
     FM162100 36010KT P6SM SCT100
     FM170300 VRB05KT P6SM SKC=

USA.gov is the U.S. government's official web portal to all federal, state and local government web resources and services.